Justin, Texas
Current Conditions -  °F | °C
As of 7:53 PM on Monday 20 Oct 2014 (Local Time) from KAFW Reporting Station
Scattered Clouds Scattered Clouds  
Wind Chill: 71°   Ceiling: Unl
Heat Index: 71°   Visibility: 10mi
Dew Point: 57°   Wind: 3mph
Humidity: 61%   Direction: 140°SE
Pressure: 30.02"   Gusts: NA
Location:  33.08°N, 97.3°W
Report Text: KAFW 210053Z 14003KT 10SM SCT300 22/14 A3002 RMK AO2 SLP159 T02170139
Loading
Personal Weather Stations






























Interactive Weather Map
Tropical Storm Tracking
New forecast layout! Learn more

10-Day Weather Forecast

Advertisements
Track Severe Weather on mobile